首页
METAR-TAF:

METAR-TAF

机场 :

汶萊國際機場

文莱, 文莱

纬度: 04-56N, 经度: 114-56E, 海拔: 22米

当前天气观测

该预报发布于30分钟前的15:00 UTC
风速1节,风向西南
温度 28°C
湿度 89%
气压 1009 hPa
能見度: 7000
少量云层高于1500英尺
多云层高于30000英尺

METAR: WBSB 161500Z 22001KT 7000 FEW015 BKN300 28/26 Q1009 NOSIG

时间: 23:30 (15:30 UTC)

预报

该预报发布于4小时和30分钟前的11:00 UTC
预报有效从16日的 12点(UTC)到 17日的 18点(UTC)
风速3节,风向西转西南
能見度: 7000
少量云层高于1500英尺
成为
从 17日的 03点(UTC)到 17日的 05点(UTC)
风速10节,风向北转西北
少量云层高于1700英尺

TAF: WBSB 161100Z 1612/1718 24003KT 7000 FEW015 BECMG 1703/1705 34010KT FEW017

超过4000个机场的气象观测和天气预报(METAR&TAF报告)。

可查询的气象台以黄色和红色小点在地图上表示。

将鼠标移到小点上方,可查看气象台名称。

然后点击查看天气观测和预报。

如需切换地图:点击带黑十字的绿色按钮放大地图;点击带横线的绿色按钮缩小地图;或者点击绿色箭头查看邻近地区的地图。


METAR-TAF: